sensor_id;sensor_type;location;lat;lon;timestamp;pressure;altitude;pressure_sealevel;temperature;humidity
75219;BME280;63801;49.414;19.474;2023-04-03T00:01:33;93843.50;;;1.40;77.67
75219;BME280;63801;49.414;19.474;2023-04-03T00:03:34;93840.63;;;1.37;78.08
75219;BME280;63801;49.414;19.474;2023-04-03T00:05:34;93841.63;;;1.41;77.75
75219;BME280;63801;49.414;19.474;2023-04-03T00:07:35;93831.28;;;1.39;77.70
75219;BME280;63801;49.414;19.474;2023-04-03T00:09:35;93839.75;;;1.41;77.86
75219;BME280;63801;49.414;19.474;2023-04-03T00:11:36;93840.56;;;1.42;78.02
75219;BME280;63801;49.414;19.474;2023-04-03T00:13:37;93838.66;;;1.42;77.69
75219;BME280;63801;49.414;19.474;2023-04-03T00:15:38;93836.78;;;1.43;77.71
75219;BME280;63801;49.414;19.474;2023-04-03T00:17:39;93842.09;;;1.43;77.85
75219;BME280;63801;49.414;19.474;2023-04-03T00:19:39;93839.97;;;1.45;77.75
75219;BME280;63801;49.414;19.474;2023-04-03T00:21:40;93846.34;;;1.44;77.84
75219;BME280;63801;49.414;19.474;2023-04-03T00:23:41;93839.97;;;1.45;77.74
75219;BME280;63801;49.414;19.474;2023-04-03T00:25:42;93839.97;;;1.45;77.65
75219;BME280;63801;49.414;19.474;2023-04-03T00:27:42;93837.31;;;1.45;77.91
75219;BME280;63801;49.414;19.474;2023-04-03T00:29:43;93848.41;;;1.47;77.72
75219;BME280;63801;49.414;19.474;2023-04-03T00:31:43;93846.88;;;1.46;77.93
75219;BME280;63801;49.414;19.474;2023-04-03T00:33:43;93841.56;;;1.46;77.82
75219;BME280;63801;49.414;19.474;2023-04-03T00:35:44;93847.94;;;1.45;77.89
75219;BME280;63801;49.414;19.474;2023-04-03T00:37:44;93827.97;;;1.28;77.45
75219;BME280;63801;49.414;19.474;2023-04-03T00:39:45;93840.84;;;1.40;77.69
75219;BME280;63801;49.414;19.474;2023-04-03T00:41:45;93841.91;;;1.39;77.89
75219;BME280;63801;49.414;19.474;2023-04-03T00:43:46;93835.19;;;1.28;77.64
75219;BME280;63801;49.414;19.474;2023-04-03T00:45:48;93849.38;;;1.37;77.70
75219;BME280;63801;49.414;19.474;2023-04-03T00:47:49;93853.31;;;1.40;78.22
75219;BME280;63801;49.414;19.474;2023-04-03T00:49:50;93853.03;;;1.41;77.90
75219;BME280;63801;49.414;19.474;2023-04-03T00:51:52;93848.00;;;1.40;77.86
75219;BME280;63801;49.414;19.474;2023-04-03T00:53:58;93845.06;;;1.41;77.86
75219;BME280;63801;49.414;19.474;2023-04-03T00:56:00;93848.53;;;1.42;77.73
75219;BME280;63801;49.414;19.474;2023-04-03T00:58:01;93853.31;;;1.40;77.78
75219;BME280;63801;49.414;19.474;2023-04-03T01:00:08;93833.00;;;1.30;77.78
75219;BME280;63801;49.414;19.474;2023-04-03T01:02:10;93849.38;;;1.37;77.90
75219;BME280;63801;49.414;19.474;2023-04-03T01:06:33;93855.47;;;1.38;77.76
75219;BME280;63801;49.414;19.474;2023-04-03T01:08:34;93848.59;;;1.37;78.11
75219;BME280;63801;49.414;19.474;2023-04-03T01:10:35;93853.31;;;1.40;77.72
75219;BME280;63801;49.414;19.474;2023-04-03T01:12:38;93861.56;;;1.38;78.00
75219;BME280;63801;49.414;19.474;2023-04-03T01:14:39;93856.03;;;1.34;77.96
75219;BME280;63801;49.414;19.474;2023-04-03T01:16:39;93861.88;;;1.37;77.81
75219;BME280;63801;49.414;19.474;2023-04-03T01:18:40;93862.94;;;1.35;78.09
75219;BME280;63801;49.414;19.474;2023-04-03T01:21:02;93860.28;;;1.35;77.84
75219;BME280;63801;49.414;19.474;2023-04-03T01:25:10;93865.09;;;1.33;77.81
75219;BME280;63801;49.414;19.474;2023-04-03T01:27:10;93861.16;;;1.31;77.85
75219;BME280;63801;49.414;19.474;2023-04-03T01:29:10;93862.22;;;1.30;77.81
75219;BME280;63801;49.414;19.474;2023-04-03T01:31:25;93860.94;;;1.27;77.91
75219;BME280;63801;49.414;19.474;2023-04-03T01:33:26;93865.72;;;1.25;77.79
75219;BME280;63801;49.414;19.474;2023-04-03T01:35:26;93861.50;;;1.24;77.84
75219;BME280;63801;49.414;19.474;2023-04-03T01:37:27;93868.19;;;1.22;77.76
75219;BME280;63801;49.414;19.474;2023-04-03T01:39:27;93871.41;;;1.19;77.77
75219;BME280;63801;49.414;19.474;2023-04-03T01:41:28;93869.31;;;1.16;77.81
75219;BME280;63801;49.414;19.474;2023-04-03T01:43:28;93864.06;;;1.11;77.67
75219;BME280;63801;49.414;19.474;2023-04-03T01:45:29;93867.81;;;1.10;77.73
75219;BME280;63801;49.414;19.474;2023-04-03T01:47:29;93863.38;;;1.05;78.03
75219;BME280;63801;49.414;19.474;2023-04-03T01:49:32;93866.03;;;1.05;77.67
75219;BME280;63801;49.414;19.474;2023-04-03T01:51:32;93863.16;;;1.02;77.87
75219;BME280;63801;49.414;19.474;2023-04-03T01:53:33;93860.56;;;0.97;77.83
75219;BME280;63801;49.414;19.474;2023-04-03T01:55:34;93862.50;;;0.91;77.92
75219;BME280;63801;49.414;19.474;2023-04-03T01:57:34;93862.50;;;0.91;77.77
75219;BME280;63801;49.414;19.474;2023-04-03T01:59:35;93866.78;;;0.87;77.71
75219;BME280;63801;49.414;19.474;2023-04-03T02:01:35;93865.25;;;0.81;78.10
75219;BME280;63801;49.414;19.474;2023-04-03T02:03:36;93867.91;;;0.81;77.74
75219;BME280;63801;49.414;19.474;2023-04-03T02:05:36;93872.16;;;0.82;77.60
75219;BME280;63801;49.414;19.474;2023-04-03T02:07:37;93873.22;;;0.81;77.78
75219;BME280;63801;49.414;19.474;2023-04-03T02:09:38;93873.53;;;0.79;77.83
75219;BME280;63801;49.414;19.474;2023-04-03T02:11:38;93873.81;;;0.78;77.64
75219;BME280;63801;49.414;19.474;2023-04-03T02:13:38;93877.72;;;0.80;77.97
75219;BME280;63801;49.414;19.474;2023-04-03T02:15:39;93879.59;;;0.80;77.79
75219;BME280;63801;49.414;19.474;2023-04-03T02:17:39;93883.84;;;0.81;77.87
75219;BME280;63801;49.414;19.474;2023-04-03T02:19:40;93872.72;;;0.79;78.05
75219;BME280;63801;49.414;19.474;2023-04-03T02:21:40;93874.38;;;0.75;78.12
75219;BME280;63801;49.414;19.474;2023-04-03T02:23:40;93880.69;;;0.79;78.02
75219;BME280;63801;49.414;19.474;2023-04-03T02:25:41;93877.19;;;0.83;78.26
75219;BME280;63801;49.414;19.474;2023-04-03T02:27:41;93880.13;;;0.82;77.99
75219;BME280;63801;49.414;19.474;2023-04-03T02:29:41;93885.94;;;0.84;78.20
75219;BME280;63801;49.414;19.474;2023-04-03T02:31:42;93884.63;;;0.81;77.81
75219;BME280;63801;49.414;19.474;2023-04-03T02:33:42;93880.38;;;0.80;78.05
75219;BME280;63801;49.414;19.474;2023-04-03T02:35:42;93885.69;;;0.80;78.28
75219;BME280;63801;49.414;19.474;2023-04-03T02:37:43;93888.34;;;0.80;77.94
75219;BME280;63801;49.414;19.474;2023-04-03T02:39:43;93884.91;;;0.80;77.94
75219;BME280;63801;49.414;19.474;2023-04-03T02:41:43;93881.47;;;0.79;77.97
75219;BME280;63801;49.414;19.474;2023-04-03T02:43:43;93876.94;;;0.80;78.04
75219;BME280;63801;49.414;19.474;2023-04-03T02:45:44;93878.53;;;0.81;77.75
75219;BME280;63801;49.414;19.474;2023-04-03T02:47:44;93887.28;;;0.81;78.08
75219;BME280;63801;49.414;19.474;2023-04-03T02:49:45;93880.38;;;0.80;78.31
75219;BME280;63801;49.414;19.474;2023-04-03T02:51:46;93878.31;;;0.77;78.29
75219;BME280;63801;49.414;19.474;2023-04-03T02:53:47;93878.31;;;0.77;78.19
75219;BME280;63801;49.414;19.474;2023-04-03T02:55:48;93881.75;;;0.78;78.48
75219;BME280;63801;49.414;19.474;2023-04-03T02:57:48;93879.38;;;0.76;78.49
75219;BME280;63801;49.414;19.474;2023-04-03T02:59:48;93885.75;;;0.75;78.08
75219;BME280;63801;49.414;19.474;2023-04-03T03:01:49;93889.78;;;0.73;78.47
75219;BME280;63801;49.414;19.474;2023-04-03T03:03:49;93885.53;;;0.72;78.39
75219;BME280;63801;49.414;19.474;2023-04-03T03:05:49;93889.56;;;0.69;78.26
75219;BME280;63801;49.414;19.474;2023-04-03T03:07:50;93892.78;;;0.66;78.43
75219;BME280;63801;49.414;19.474;2023-04-03T03:09:50;93897.03;;;0.62;78.44
75219;BME280;63801;49.414;19.474;2023-04-03T03:11:50;93900.00;;;0.61;78.40
75219;BME280;63801;49.414;19.474;2023-04-03T03:13:51;93894.47;;;0.57;78.71
75219;BME280;63801;49.414;19.474;2023-04-03T03:15:51;93888.94;;;0.54;78.65
75219;BME280;63801;49.414;19.474;2023-04-03T03:17:51;93900.38;;;0.49;78.60
75219;BME280;63801;49.414;19.474;2023-04-03T03:19:52;93899.09;;;0.47;78.75
75219;BME280;63801;49.414;19.474;2023-04-03T03:21:52;93899.66;;;0.43;78.91
75219;BME280;63801;49.414;19.474;2023-04-03T03:23:52;93897.56;;;0.40;78.44
75219;BME280;63801;49.414;19.474;2023-04-03T03:26:01;93892.31;;;0.35;78.63
75219;BME280;63801;49.414;19.474;2023-04-03T03:28:02;93898.47;;;0.31;78.47
75219;BME280;63801;49.414;19.474;2023-04-03T03:30:03;93894.50;;;0.28;78.96
75219;BME280;63801;49.414;19.474;2023-04-03T03:32:03;93900.16;;;0.22;78.66
75219;BME280;63801;49.414;19.474;2023-04-03T03:34:04;93902.00;;;0.21;78.91
75219;BME280;63801;49.414;19.474;2023-04-03T03:36:05;93902.81;;;0.22;78.75
75219;BME280;63801;49.414;19.474;2023-04-03T03:38:05;93906.50;;;0.21;78.74
75219;BME280;63801;49.414;19.474;2023-04-03T03:40:06;93907.84;;;0.18;78.77
75219;BME280;63801;49.414;19.474;2023-04-03T03:42:06;93906.28;;;0.17;78.97
75219;BME280;63801;49.414;19.474;2023-04-03T03:44:07;93893.56;;;0.14;78.75
75219;BME280;63801;49.414;19.474;2023-04-03T03:46:07;93900.25;;;0.12;78.41
75219;BME280;63801;49.414;19.474;2023-04-03T03:48:08;93904.78;;;0.06;78.67
75219;BME280;63801;49.414;19.474;2023-04-03T03:50:08;93915.38;;;0.06;78.52
75219;BME280;63801;49.414;19.474;2023-04-03T03:52:09;93916.44;;;0.05;78.51
75219;BME280;63801;49.414;19.474;2023-04-03T03:54:10;93912.25;;;0.04;78.67
75219;BME280;63801;49.414;19.474;2023-04-03T03:56:11;93911.22;;;0.00;78.69
75219;BME280;63801;49.414;19.474;2023-04-03T03:58:11;93918.63;;;-0.02;78.37
75219;BME280;63801;49.414;19.474;2023-04-03T04:00:12;93910.81;;;-0.17;78.60
75219;BME280;63801;49.414;19.474;2023-04-03T04:02:12;93922.66;;;-0.05;78.42
75219;BME280;63801;49.414;19.474;2023-04-03T04:04:13;93921.34;;;-0.07;78.26
75219;BME280;63801;49.414;19.474;2023-04-03T04:06:13;93921.09;;;-0.11;78.47
75219;BME280;63801;49.414;19.474;2023-04-03T04:08:13;93921.09;;;-0.11;78.84
75219;BME280;63801;49.414;19.474;2023-04-03T04:10:14;93920.31;;;-0.11;78.77
75219;BME280;63801;49.414;19.474;2023-04-03T04:12:14;93921.09;;;-0.11;78.48
75219;BME280;63801;49.414;19.474;2023-04-03T04:14:16;93928.78;;;-0.09;78.90
75219;BME280;63801;49.414;19.474;2023-04-03T04:16:16;93920.84;;;-0.09;78.59
75219;BME280;63801;49.414;19.474;2023-04-03T04:18:16;93923.47;;;-0.09;78.90
75219;BME280;63801;49.414;19.474;2023-04-03T04:20:17;93918.94;;;-0.09;78.65
75219;BME280;63801;49.414;19.474;2023-04-03T04:22:18;93926.91;;;-0.09;78.73
75219;BME280;63801;49.414;19.474;2023-04-03T04:24:18;93925.03;;;-0.08;78.83
75219;BME280;63801;49.414;19.474;2023-04-03T04:26:18;93909.53;;;-0.20;78.79
75219;BME280;63801;49.414;19.474;2023-04-03T04:28:20;93928.22;;;-0.06;78.96
75219;BME280;63801;49.414;19.474;2023-04-03T04:30:20;93927.66;;;-0.03;78.81
75219;BME280;63801;49.414;19.474;2023-04-03T04:32:20;93935.06;;;0.00;78.88
75219;BME280;63801;49.414;19.474;2023-04-03T04:34:21;93932.91;;;0.02;78.86
75219;BME280;63801;49.414;19.474;2023-04-03T04:36:21;93933.44;;;0.04;78.83
75219;BME280;63801;49.414;19.474;2023-04-03T04:38:21;93930.50;;;0.06;78.80
75219;BME280;63801;49.414;19.474;2023-04-03T04:40:22;93932.34;;;0.05;78.68
75219;BME280;63801;49.414;19.474;2023-04-03T04:42:22;93936.31;;;0.08;78.63
75219;BME280;63801;49.414;19.474;2023-04-03T04:44:23;93942.13;;;0.10;78.53
75219;BME280;63801;49.414;19.474;2023-04-03T04:46:23;93936.53;;;0.11;78.88
75219;BME280;63801;49.414;19.474;2023-04-03T04:48:24;93940.78;;;0.12;78.57
75219;BME280;63801;49.414;19.474;2023-04-03T04:50:30;93943.94;;;0.14;78.85
75219;BME280;63801;49.414;19.474;2023-04-03T04:52:30;93939.66;;;0.18;78.63
75219;BME280;63801;49.414;19.474;2023-04-03T04:54:31;93942.81;;;0.20;78.81
75219;BME280;63801;49.414;19.474;2023-04-03T04:56:31;93942.81;;;0.20;78.59
75219;BME280;63801;49.414;19.474;2023-04-03T04:58:31;93950.44;;;0.27;78.76
75219;BME280;63801;49.414;19.474;2023-04-03T05:00:32;93943.81;;;0.29;78.68
75219;BME280;63801;49.414;19.474;2023-04-03T05:02:32;93930.59;;;0.24;78.34
75219;BME280;63801;49.414;19.474;2023-04-03T05:04:33;93946.13;;;0.36;78.32
75219;BME280;63801;49.414;19.474;2023-04-03T05:06:33;93941.59;;;0.36;78.51
75219;BME280;63801;49.414;19.474;2023-04-03T05:08:35;93944.56;;;0.35;78.27
75219;BME280;63801;49.414;19.474;2023-04-03T05:10:35;93943.19;;;0.37;78.57
75219;BME280;63801;49.414;19.474;2023-04-03T05:12:35;93943.19;;;0.37;78.47
75219;BME280;63801;49.414;19.474;2023-04-03T05:14:36;93941.13;;;0.34;78.33
75219;BME280;63801;49.414;19.474;2023-04-03T05:16:36;93945.34;;;0.35;78.09
75219;BME280;63801;49.414;19.474;2023-04-03T05:18:37;93949.84;;;0.35;78.47
75219;BME280;63801;49.414;19.474;2023-04-03T05:20:37;93953.84;;;0.32;78.46
75219;BME280;63801;49.414;19.474;2023-04-03T05:22:38;93952.22;;;0.36;78.17
75219;BME280;63801;49.414;19.474;2023-04-03T05:24:38;93957.50;;;0.36;78.35
75219;BME280;63801;49.414;19.474;2023-04-03T05:26:39;93949.84;;;0.35;78.13
75219;BME280;63801;49.414;19.474;2023-04-03T05:28:39;93947.47;;;0.33;78.40
75219;BME280;63801;49.414;19.474;2023-04-03T05:30:39;93947.47;;;0.33;78.17
75219;BME280;63801;49.414;19.474;2023-04-03T05:32:40;93946.91;;;0.36;78.36
75219;BME280;63801;49.414;19.474;2023-04-03T05:34:40;93946.91;;;0.36;78.26
75219;BME280;63801;49.414;19.474;2023-04-03T05:36:41;93945.06;;;0.37;78.14
75219;BME280;63801;49.414;19.474;2023-04-03T05:38:42;93948.00;;;0.35;78.22
75219;BME280;63801;49.414;19.474;2023-04-03T05:40:42;93949.84;;;0.35;78.20
75219;BME280;63801;49.414;19.474;2023-04-03T05:42:42;93952.78;;;0.33;78.27
75219;BME280;63801;49.414;19.474;2023-04-03T05:44:43;93954.91;;;0.31;78.26
75219;BME280;63801;49.414;19.474;2023-04-03T05:46:44;93943.25;;;0.32;78.30
75219;BME280;63801;49.414;19.474;2023-04-03T05:48:44;93931.66;;;0.23;77.95
75219;BME280;63801;49.414;19.474;2023-04-03T05:50:46;93950.41;;;0.32;78.04
75219;BME280;63801;49.414;19.474;2023-04-03T05:52:48;93944.31;;;0.31;78.39
75219;BME280;63801;49.414;19.474;2023-04-03T05:54:49;93950.09;;;0.38;78.33
75219;BME280;63801;49.414;19.474;2023-04-03T05:56:50;93942.63;;;0.40;78.74
75219;BME280;63801;49.414;19.474;2023-04-03T05:58:51;93956.06;;;0.49;78.45
75219;BME280;63801;49.414;19.474;2023-04-03T06:00:51;93952.81;;;0.57;78.49
75219;BME280;63801;49.414;19.474;2023-04-03T06:02:52;93955.66;;;0.66;78.58
75219;BME280;63801;49.414;19.474;2023-04-03T06:04:52;93950.78;;;0.73;78.32
75219;BME280;63801;49.414;19.474;2023-04-03T06:06:55;93954.19;;;0.78;78.35
75219;BME280;63801;49.414;19.474;2023-04-03T06:08:57;93951.47;;;0.83;78.17
75219;BME280;63801;49.414;19.474;2023-04-03T06:10:57;93957.28;;;0.85;77.95
75219;BME280;63801;49.414;19.474;2023-04-03T06:12:58;93957.22;;;0.90;77.98
75219;BME280;63801;49.414;19.474;2023-04-03T06:14:58;93951.34;;;0.94;78.08
75219;BME280;63801;49.414;19.474;2023-04-03T06:16:58;93955.81;;;0.98;77.73
75219;BME280;63801;49.414;19.474;2023-04-03T06:18:59;93961.91;;;0.99;77.59
75219;BME280;63801;49.414;19.474;2023-04-03T06:21:00;93950.22;;;1.00;77.70
75219;BME280;63801;49.414;19.474;2023-04-03T06:23:02;93965.94;;;0.96;77.31
75219;BME280;63801;49.414;19.474;2023-04-03T06:25:03;93971.00;;;0.93;77.52
75219;BME280;63801;49.414;19.474;2023-04-03T06:27:04;93976.06;;;0.89;77.51
75219;BME280;63801;49.414;19.474;2023-04-03T06:29:05;93968.97;;;0.84;77.58
75219;BME280;63801;49.414;19.474;2023-04-03T06:31:05;93973.50;;;0.84;77.58
75219;BME280;63801;49.414;19.474;2023-04-03T06:33:05;93978.28;;;0.82;77.20
75219;BME280;63801;49.414;19.474;2023-04-03T06:35:07;93987.34;;;0.76;77.34
75219;BME280;63801;49.414;19.474;2023-04-03T06:37:17;93986.34;;;0.72;77.42
75219;BME280;63801;49.414;19.474;2023-04-03T06:39:20;93981.59;;;0.69;77.58
75219;BME280;63801;49.414;19.474;2023-04-03T06:41:22;93983.19;;;0.70;77.91
75219;BME280;63801;49.414;19.474;2023-04-03T06:43:22;93983.47;;;0.68;77.89
75219;BME280;63801;49.414;19.474;2023-04-03T06:45:23;93987.19;;;0.67;77.77
75219;BME280;63801;49.414;19.474;2023-04-03T06:47:25;93990.09;;;0.71;77.67
75219;BME280;63801;49.414;19.474;2023-04-03T06:49:25;93989.50;;;0.74;77.69
75219;BME280;63801;49.414;19.474;2023-04-03T06:51:28;93985.50;;;0.76;77.34
75219;BME280;63801;49.414;19.474;2023-04-03T06:53:28;93987.34;;;0.76;77.42
75219;BME280;63801;49.414;19.474;2023-04-03T06:55:29;93988.44;;;0.75;77.24
75219;BME280;63801;49.414;19.474;2023-04-03T06:57:29;93991.88;;;0.75;76.94
75219;BME280;63801;49.414;19.474;2023-04-03T06:59:30;93986.34;;;0.72;76.76
75219;BME280;63801;49.414;19.474;2023-04-03T07:01:30;93985.06;;;0.69;76.54
75219;BME280;63801;49.414;19.474;2023-04-03T07:03:31;93995.13;;;0.67;76.62
75219;BME280;63801;49.414;19.474;2023-04-03T07:05:31;93991.69;;;0.67;76.86
75219;BME280;63801;49.414;19.474;2023-04-03T07:07:31;93994.88;;;0.69;76.59
75219;BME280;63801;49.414;19.474;2023-04-03T07:09:34;93993.00;;;0.69;76.63
75219;BME280;63801;49.414;19.474;2023-04-03T07:11:35;94002.81;;;0.69;76.46
75219;BME280;63801;49.414;19.474;2023-04-03T07:13:36;93994.34;;;0.67;76.39
75219;BME280;63801;49.414;19.474;2023-04-03T07:15:37;94008.66;;;0.71;76.45
75219;BME280;63801;49.414;19.474;2023-04-03T07:17:37;94005.66;;;0.77;76.54
75219;BME280;63801;49.414;19.474;2023-04-03T07:19:37;94014.38;;;0.83;76.26
75219;BME280;63801;49.414;19.474;2023-04-03T07:21:38;94011.66;;;0.88;76.08
75219;BME280;63801;49.414;19.474;2023-04-03T07:23:38;94004.19;;;0.90;76.29
75219;BME280;63801;49.414;19.474;2023-04-03T07:25:46;94017.94;;;0.97;76.15
75219;BME280;63801;49.414;19.474;2023-04-03T07:27:46;94006.34;;;0.88;76.22
75219;BME280;63801;49.414;19.474;2023-04-03T07:29:47;94024.22;;;1.06;76.27
75219;BME280;63801;49.414;19.474;2023-04-03T07:31:48;94017.53;;;1.09;76.06
75219;BME280;63801;49.414;19.474;2023-04-03T07:33:49;94026.00;;;1.11;75.51
75219;BME280;63801;49.414;19.474;2023-04-03T07:35:50;94027.94;;;1.05;75.68
75219;BME280;63801;49.414;19.474;2023-04-03T07:37:50;94024.81;;;0.98;75.51
75219;BME280;63801;49.414;19.474;2023-04-03T07:39:50;94034.13;;;0.96;75.41
75219;BME280;63801;49.414;19.474;2023-04-03T07:41:51;94025.94;;;0.92;74.90
75219;BME280;63801;49.414;19.474;2023-04-03T07:43:51;94028.66;;;0.87;75.04
75219;BME280;63801;49.414;19.474;2023-04-03T07:45:53;94034.28;;;0.80;74.86
75219;BME280;63801;49.414;19.474;2023-04-03T07:47:54;94040.41;;;0.76;74.81
75219;BME280;63801;49.414;19.474;2023-04-03T07:49:55;94040.19;;;0.72;74.62
75219;BME280;63801;49.414;19.474;2023-04-03T07:51:57;94038.91;;;0.70;74.65
75219;BME280;63801;49.414;19.474;2023-04-03T07:53:58;94035.53;;;0.59;74.32
75219;BME280;63801;49.414;19.474;2023-04-03T07:55:59;94038.47;;;0.58;74.56
75219;BME280;63801;49.414;19.474;2023-04-03T07:58:00;94041.38;;;0.61;74.65
75219;BME280;63801;49.414;19.474;2023-04-03T08:00:01;94046.41;;;0.58;74.22
75219;BME280;63801;49.414;19.474;2023-04-03T08:02:01;94046.72;;;0.56;74.39
75219;BME280;63801;49.414;19.474;2023-04-03T08:04:02;94048.00;;;0.59;74.36
75219;BME280;63801;49.414;19.474;2023-04-03T08:06:04;94054.34;;;0.63;74.21
75219;BME280;63801;49.414;19.474;2023-04-03T08:08:06;94054.91;;;0.60;74.05
75219;BME280;63801;49.414;19.474;2023-04-03T08:10:07;94057.25;;;0.66;74.29
75219;BME280;63801;49.414;19.474;2023-04-03T08:12:07;94065.19;;;0.66;73.90
75219;BME280;63801;49.414;19.474;2023-04-03T08:14:07;94065.97;;;0.67;73.83
75219;BME280;63801;49.414;19.474;2023-04-03T08:16:10;94069.19;;;0.64;73.94
75219;BME280;63801;49.414;19.474;2023-04-03T08:18:11;94065.47;;;0.65;73.23
75219;BME280;63801;49.414;19.474;2023-04-03T08:20:11;94073.22;;;0.56;72.48
75219;BME280;63801;49.414;19.474;2023-04-03T08:22:11;94067.69;;;0.53;72.62
75219;BME280;63801;49.414;19.474;2023-04-03T08:24:12;94069.31;;;0.49;72.43
75219;BME280;63801;49.414;19.474;2023-04-03T08:26:15;94080.75;;;0.44;72.50
75219;BME280;63801;49.414;19.474;2023-04-03T08:28:16;94088.72;;;0.44;72.37
75219;BME280;63801;49.414;19.474;2023-04-03T08:30:17;94082.09;;;0.41;72.56
75219;BME280;63801;49.414;19.474;2023-04-03T08:32:17;94099.31;;;0.44;72.28
75219;BME280;63801;49.414;19.474;2023-04-03T08:34:18;94094.28;;;0.42;72.32
75219;BME280;63801;49.414;19.474;2023-04-03T08:36:24;94095.88;;;0.43;72.65
75219;BME280;63801;49.414;19.474;2023-04-03T08:38:25;94101.69;;;0.45;72.79
75219;BME280;63801;49.414;19.474;2023-04-03T08:40:25;94101.09;;;0.54;72.54
75219;BME280;63801;49.414;19.474;2023-04-03T08:42:39;94107.13;;;0.64;72.44
75219;BME280;63801;49.414;19.474;2023-04-03T08:44:51;94093.59;;;0.66;71.80
75219;BME280;63801;49.414;19.474;2023-04-03T08:49:43;94111.72;;;0.87;71.40
75219;BME280;63801;49.414;19.474;2023-04-03T08:51:49;94111.97;;;0.86;70.56
75219;BME280;63801;49.414;19.474;2023-04-03T08:53:58;94118.34;;;0.85;70.73
75219;BME280;63801;49.414;19.474;2023-04-03T08:56:06;94111.78;;;0.77;71.19
75219;BME280;63801;49.414;19.474;2023-04-03T08:58:16;94125.00;;;0.82;70.36
75219;BME280;63801;49.414;19.474;2023-04-03T09:00:21;94124.47;;;0.80;70.73
75219;BME280;63801;49.414;19.474;2023-04-03T09:02:27;94132.22;;;0.77;70.21
75219;BME280;63801;49.414;19.474;2023-04-03T09:04:30;94124.84;;;0.69;70.52
75219;BME280;63801;49.414;19.474;2023-04-03T09:06:32;94130.75;;;0.61;70.29
75219;BME280;63801;49.414;19.474;2023-04-03T09:08:40;94126.50;;;0.60;70.70
75219;BME280;63801;49.414;19.474;2023-04-03T09:10:43;94134.66;;;0.68;70.95
75219;BME280;63801;49.414;19.474;2023-04-03T09:12:51;94134.59;;;0.78;70.97
75219;BME280;63801;49.414;19.474;2023-04-03T09:21:32;94142.81;;;0.77;70.31
75219;BME280;63801;49.414;19.474;2023-04-03T09:23:44;94144.41;;;0.78;70.04
75219;BME280;63801;49.414;19.474;2023-04-03T09:25:45;94139.69;;;0.75;70.20
75219;BME280;63801;49.414;19.474;2023-04-03T09:27:46;94147.34;;;0.76;70.51
75219;BME280;63801;49.414;19.474;2023-04-03T09:29:47;94145.25;;;0.73;70.12
75219;BME280;63801;49.414;19.474;2023-04-03T09:31:50;94152.63;;;0.76;70.21
75219;BME280;63801;49.414;19.474;2023-04-03T09:33:57;94150.47;;;0.83;70.42
75219;BME280;63801;49.414;19.474;2023-04-03T09:35:59;94155.97;;;0.92;70.07
75219;BME280;63801;49.414;19.474;2023-04-03T09:42:25;94151.06;;;0.75;68.16
75219;BME280;63801;49.414;19.474;2023-04-03T09:44:32;94161.97;;;0.74;68.65
75219;BME280;63801;49.414;19.474;2023-04-03T09:46:33;94161.94;;;0.79;69.13
75219;BME280;63801;49.414;19.474;2023-04-03T09:48:34;94167.97;;;0.84;69.12
75219;BME280;63801;49.414;19.474;2023-04-03T09:50:35;94162.34;;;0.91;69.08
75219;BME280;63801;49.414;19.474;2023-04-03T09:52:36;94167.06;;;0.99;68.79
75219;BME280;63801;49.414;19.474;2023-04-03T09:54:37;94163.56;;;1.04;68.41
75219;BME280;63801;49.414;19.474;2023-04-03T09:56:39;94163.00;;;1.07;68.13
75219;BME280;63801;49.414;19.474;2023-04-03T09:58:40;94166.94;;;1.14;68.84
75219;BME280;63801;49.414;19.474;2023-04-03T10:00:43;94150.41;;;1.22;68.41
75219;BME280;63801;49.414;19.474;2023-04-03T10:02:43;94152.84;;;1.43;68.99
75219;BME280;63801;49.414;19.474;2023-04-03T10:04:44;94151.41;;;1.79;68.59
75219;BME280;63801;49.414;19.474;2023-04-03T10:06:55;94154.72;;;2.32;67.79
75219;BME280;63801;49.414;19.474;2023-04-03T10:09:00;94150.56;;;2.45;64.69
75219;BME280;63801;49.414;19.474;2023-04-03T10:11:15;94148.97;;;2.44;64.14
75219;BME280;63801;49.414;19.474;2023-04-03T10:13:20;94152.50;;;2.58;65.08
75219;BME280;63801;49.414;19.474;2023-04-03T10:15:21;94151.53;;;2.86;63.76
75219;BME280;63801;49.414;19.474;2023-04-03T10:17:41;94165.56;;;2.92;61.29
75219;BME280;63801;49.414;19.474;2023-04-03T10:20:01;94156.88;;;2.86;61.99
75219;BME280;63801;49.414;19.474;2023-04-03T10:31:18;94150.88;;;3.27;59.44
75219;BME280;63801;49.414;19.474;2023-04-03T10:33:36;94152.72;;;3.45;58.78
75219;BME280;63801;49.414;19.474;2023-04-03T10:40:23;94152.16;;;4.02;58.02
75219;BME280;63801;49.414;19.474;2023-04-03T10:42:49;94134.94;;;4.08;58.76
75219;BME280;63801;49.414;19.474;2023-04-03T10:45:02;94143.13;;;4.26;58.81
75219;BME280;63801;49.414;19.474;2023-04-03T10:47:13;94146.28;;;4.41;58.99
75219;BME280;63801;49.414;19.474;2023-04-03T10:49:25;94150.06;;;4.63;59.29
75219;BME280;63801;49.414;19.474;2023-04-03T10:51:43;94147.72;;;4.83;59.28
75219;BME280;63801;49.414;19.474;2023-04-03T10:53:55;94151.16;;;4.97;58.93
75219;BME280;63801;49.414;19.474;2023-04-03T10:58:06;94152.22;;;4.96;59.15
75219;BME280;63801;49.414;19.474;2023-04-03T11:00:21;94148.22;;;4.85;58.55
75219;BME280;63801;49.414;19.474;2023-04-03T11:02:26;94147.59;;;4.66;58.25
75219;BME280;63801;49.414;19.474;2023-04-03T11:04:31;94142.22;;;4.44;57.94
75219;BME280;63801;49.414;19.474;2023-04-03T11:06:50;94158.06;;;4.13;57.77
75219;BME280;63801;49.414;19.474;2023-04-03T11:09:01;94153.84;;;3.85;58.29
75219;BME280;63801;49.414;19.474;2023-04-03T11:11:08;94154.50;;;3.63;58.49
75219;BME280;63801;49.414;19.474;2023-04-03T11:13:20;94156.63;;;3.34;58.12
75219;BME280;63801;49.414;19.474;2023-04-03T11:15:23;94152.00;;;3.07;58.80
75219;BME280;63801;49.414;19.474;2023-04-03T11:17:37;94158.94;;;2.89;58.91
75219;BME280;63801;49.414;19.474;2023-04-03T11:21:57;94133.38;;;2.56;59.48
75219;BME280;63801;49.414;19.474;2023-04-03T11:24:03;94152.56;;;2.53;59.34